Pagrindinis puslapis
METAR-TAF:

METAR-TAF

Oro uostai :

Gibraltaras, Gibraltaras

platuma: 36-09N, ilguma: 005-21W, Aukštis: 5 m

Dabartinis oras

Ataskaita buvo paskelbta 1 valandą ir 0 minutes, ne 03:50 UTC
Vėjas 4 kt iš Vakarų
Temperatūra 21°C
Drėgmė 94%
Slėgis 1015 hPa
Matomumas: 5000 m
Išsisklaidę debesys ne aukštis 700 ft
Išsisklaidę debesys ne aukštis 2400 ft
migla

METAR: LXGB 180350Z 26004KT 5000 HZ SCT007 SCT024 21/20 Q1015 RMK GRN

Laikas: 06:50 (04:50 UTC)

Prognozė

Ataskaita buvo paskelbta 12 valandos ir 19 minutes, ne 16:31 UTC
Prognozė galioja nuo 17 metu 18 UTC su 17 metu 22 UTC
Vėjas 10 kt iš Rytų
Matomumas 10 km arba daugiau
Mažai debesys ne aukštis 1200 ft
Išsisklaidę debesys ne aukštis 3500 ft
Tapsmas
nuo 17 metu 18 UTC su 17 metu 21 UTC
Matomumas: 7000 m
migla
Tikimybė 30% :
Laikinai
nuo 17 metu 18 UTC su 17 metu 22 UTC
Išsisklaidę debesys ne aukštis 700 ft

TAF: LXGB 171631Z 1718/1722 08010KT 9999 FEW012 SCT035 BECMG 1718/1721 7000 HZ PROB30 TEMPO 1718/1722 SCT007

Orai ataskaitas ir orų prognozės (METAR, TAF).

turimą stotys yra geltonos ir raudonos taškus žemėlapyje.

Perkelti pele per norėdami pamatyti stoties vardą.

Tada spustelėkite, norėdami matyti oro stebėjimo ir prognozės.

Norėdami pakeisti žemėlapį: spustelėkite ant žalios mygtukų su juodo kryžiaus žemyn,; žalią mygtuką su brūkšneliu, jei norite nutolinti; arba žalių rodyklių gretimoms žemėlapius.


METAR-TAF: